createdAt,value
2018-09-19T00:02:23.798Z,17.90
2018-09-19T00:04:53.403Z,17.81
2018-09-19T00:07:22.928Z,17.81
2018-09-19T00:09:52.526Z,17.79
2018-09-19T00:12:22.063Z,17.71
2018-09-19T00:14:51.554Z,17.67
2018-09-19T00:17:21.062Z,17.64
2018-09-19T00:19:50.609Z,17.66
2018-09-19T00:22:20.204Z,17.67
2018-09-19T00:24:49.847Z,17.59
2018-09-19T00:27:19.449Z,17.57
2018-09-19T00:29:48.955Z,17.57
2018-09-19T00:32:18.519Z,17.58
2018-09-19T00:34:48.091Z,17.60
2018-09-19T00:37:17.623Z,17.60
2018-09-19T00:39:47.153Z,17.54
2018-09-19T00:42:16.671Z,17.53
2018-09-19T00:44:46.251Z,17.48
2018-09-19T00:47:15.730Z,17.37
2018-09-19T00:49:45.325Z,17.31
2018-09-19T00:52:14.845Z,17.22
2018-09-19T00:54:44.372Z,17.12
2018-09-19T00:57:13.942Z,17.03
2018-09-19T00:59:43.474Z,16.98
2018-09-19T01:02:13.010Z,16.69
2018-09-19T01:04:42.559Z,16.53
2018-09-19T01:07:12.137Z,16.50
2018-09-19T01:09:41.724Z,16.56
2018-09-19T01:12:11.283Z,16.63
2018-09-19T01:14:40.922Z,16.57
2018-09-19T01:17:10.411Z,16.72
2018-09-19T01:19:39.959Z,16.76
2018-09-19T01:22:09.508Z,16.70
2018-09-19T01:24:39.065Z,16.66
2018-09-19T01:27:08.652Z,16.71
2018-09-19T01:29:38.262Z,16.69
2018-09-19T01:32:08.124Z,16.78
2018-09-19T01:34:37.661Z,16.88
2018-09-19T01:37:07.299Z,16.97
2018-09-19T01:39:36.778Z,17.07
2018-09-19T01:42:06.407Z,17.04
2018-09-19T01:44:35.904Z,17.08
2018-09-19T01:47:05.475Z,17.13
2018-09-19T01:49:35.014Z,17.11
2018-09-19T01:52:04.547Z,17.11
2018-09-19T01:54:34.175Z,17.07
2018-09-19T01:57:03.713Z,17.06
2018-09-19T01:59:33.264Z,17.08
2018-09-19T02:02:02.755Z,17.08
2018-09-19T02:04:32.312Z,17.08
2018-09-19T02:07:01.916Z,17.09
2018-09-19T02:09:31.453Z,17.07
2018-09-19T02:12:00.983Z,17.04
2018-09-19T02:14:30.549Z,17.01
2018-09-19T02:17:00.086Z,17.16
2018-09-19T02:19:29.596Z,17.21
2018-09-19T02:21:59.101Z,17.03
2018-09-19T02:24:28.579Z,17.01
2018-09-19T02:26:58.225Z,17.14
2018-09-19T02:29:27.723Z,17.21
2018-09-19T02:31:57.244Z,17.24
2018-09-19T02:34:26.827Z,17.16
2018-09-19T02:36:56.381Z,17.19
2018-09-19T02:39:25.916Z,17.23
2018-09-19T02:41:55.506Z,17.16
2018-09-19T02:44:25.036Z,17.20
2018-09-19T02:46:54.628Z,17.20
2018-09-19T02:49:24.235Z,17.16
2018-09-19T02:51:57.886Z,17.16
2018-09-19T02:54:29.145Z,17.11
2018-09-19T02:56:58.798Z,17.07
2018-09-19T02:59:28.510Z,17.09
2018-09-19T03:01:58.170Z,17.06
2018-09-19T03:04:27.674Z,17.01
2018-09-19T03:06:57.223Z,16.96
2018-09-19T03:09:26.876Z,16.95
2018-09-19T03:11:56.374Z,16.90
2018-09-19T03:14:25.896Z,16.85
2018-09-19T03:16:55.431Z,16.81
2018-09-19T03:19:24.903Z,16.75
2018-09-19T03:21:54.470Z,16.70
2018-09-19T03:24:23.948Z,16.66
2018-09-19T03:26:53.502Z,16.64
2018-09-19T03:29:23.060Z,15.93
2018-09-19T03:31:52.578Z,16.59
2018-09-19T03:34:22.153Z,16.58
2018-09-19T03:36:51.663Z,16.21
2018-09-19T03:39:21.188Z,16.41
2018-09-19T03:41:50.727Z,16.36
2018-09-19T03:44:20.256Z,16.30
2018-09-19T03:46:49.788Z,16.20
2018-09-19T03:49:19.319Z,16.20
2018-09-19T03:51:48.851Z,16.13
2018-09-19T03:54:18.417Z,16.12
2018-09-19T03:56:47.952Z,16.16
2018-09-19T03:59:17.549Z,16.11
2018-09-19T04:01:47.134Z,16.10
2018-09-19T04:04:16.656Z,16.05
2018-09-19T04:06:46.161Z,15.96
2018-09-19T04:09:15.719Z,16.00
2018-09-19T04:11:45.215Z,15.97
2018-09-19T04:14:14.748Z,15.99
2018-09-19T04:16:44.375Z,15.98
2018-09-19T04:19:13.933Z,16.03
2018-09-19T04:21:52.755Z,16.05
2018-09-19T04:24:22.247Z,16.05
2018-09-19T04:26:51.775Z,16.07
2018-09-19T04:29:21.278Z,16.09
2018-09-19T04:31:50.839Z,16.11
2018-09-19T04:34:20.342Z,16.13
2018-09-19T04:36:49.875Z,16.18
2018-09-19T04:39:19.378Z,16.22
2018-09-19T04:41:48.923Z,16.27
2018-09-19T04:44:18.551Z,16.34
2018-09-19T04:46:48.079Z,16.39
2018-09-19T04:49:17.693Z,16.44
2018-09-19T04:51:47.243Z,16.57
2018-09-19T04:54:16.856Z,16.65
2018-09-19T04:56:46.372Z,16.71
2018-09-19T04:59:15.917Z,16.79
2018-09-19T05:01:45.456Z,16.94
2018-09-19T05:04:16.006Z,17.07
2018-09-19T05:06:45.562Z,17.25
2018-09-19T05:09:15.134Z,17.33
2018-09-19T05:11:44.637Z,17.49
2018-09-19T05:14:14.184Z,17.68
2018-09-19T05:16:43.682Z,17.73
2018-09-19T05:19:13.466Z,17.93
2018-09-19T05:21:43.059Z,18.12
2018-09-19T05:24:12.569Z,18.33
2018-09-19T05:26:42.126Z,18.42
2018-09-19T05:29:11.659Z,18.52
2018-09-19T05:31:41.236Z,18.72
2018-09-19T05:34:10.845Z,18.86
2018-09-19T05:36:40.395Z,19.06
2018-09-19T05:39:09.955Z,19.15
2018-09-19T05:41:39.518Z,19.28
2018-09-19T05:44:09.043Z,19.54
2018-09-19T05:46:38.578Z,19.62
2018-09-19T05:49:14.333Z,19.70
2018-09-19T05:51:43.961Z,19.79
2018-09-19T05:54:13.501Z,20.01
2018-09-19T05:56:43.104Z,20.25
2018-09-19T05:59:12.652Z,20.42
2018-09-19T06:01:42.296Z,20.56
2018-09-19T06:04:11.819Z,20.67
2018-09-19T06:06:42.529Z,20.79
2018-09-19T06:09:12.591Z,20.72
2018-09-19T06:11:42.152Z,20.89
2018-09-19T06:14:11.948Z,21.03
2018-09-19T06:16:41.441Z,21.07
2018-09-19T06:19:10.978Z,21.27
2018-09-19T06:21:40.502Z,20.93
2018-09-19T06:24:10.035Z,21.44
2018-09-19T06:26:39.640Z,21.40
2018-09-19T06:29:09.188Z,21.25
2018-09-19T06:31:38.693Z,21.49
2018-09-19T06:34:08.272Z,21.73
2018-09-19T06:36:37.972Z,21.57
2018-09-19T06:39:09.131Z,21.67
2018-09-19T06:41:38.738Z,21.78
2018-09-19T06:44:08.292Z,22.01
2018-09-19T06:46:37.874Z,22.09
2018-09-19T06:49:07.417Z,22.09
2018-09-19T06:51:36.979Z,22.28
2018-09-19T06:54:06.501Z,22.52
2018-09-19T06:56:36.093Z,22.15
2018-09-19T06:59:05.739Z,21.84
2018-09-19T07:01:35.403Z,22.08
2018-09-19T07:04:04.961Z,22.20
2018-09-19T07:06:34.532Z,22.14
2018-09-19T07:09:04.971Z,21.56
2018-09-19T07:11:34.472Z,22.33
2018-09-19T07:14:04.111Z,22.32
2018-09-19T07:16:33.656Z,22.58
2018-09-19T07:19:03.298Z,21.97
2018-09-19T07:21:32.772Z,21.96
2018-09-19T07:24:02.419Z,22.53
2018-09-19T07:26:31.967Z,22.46
2018-09-19T07:29:01.593Z,22.48
2018-09-19T07:31:31.131Z,22.60
2018-09-19T07:34:00.716Z,22.46
2018-09-19T07:36:30.277Z,22.55
2018-09-19T07:38:59.854Z,22.78
2018-09-19T07:41:29.372Z,22.84
2018-09-19T07:43:58.911Z,23.08
2018-09-19T07:46:28.620Z,22.88
2018-09-19T07:48:58.233Z,23.14
2018-09-19T07:51:27.861Z,23.21
2018-09-19T07:53:57.468Z,23.40
2018-09-19T07:56:26.994Z,23.65
2018-09-19T07:58:56.490Z,23.66
2018-09-19T08:01:26.076Z,23.70
2018-09-19T08:03:55.573Z,23.71
2018-09-19T08:06:25.109Z,23.41
2018-09-19T08:08:54.656Z,23.57
2018-09-19T08:11:24.221Z,23.61
2018-09-19T08:13:53.872Z,23.71
2018-09-19T08:16:23.470Z,23.86
2018-09-19T08:18:53.002Z,24.00
2018-09-19T08:21:22.574Z,24.12
2018-09-19T08:23:52.118Z,24.15
2018-09-19T08:26:21.673Z,24.23
2018-09-19T08:28:51.182Z,24.33
2018-09-19T08:31:20.770Z,24.26
2018-09-19T08:33:50.448Z,24.44
2018-09-19T08:36:20.080Z,24.49
2018-09-19T08:38:49.608Z,24.50
2018-09-19T08:41:19.281Z,24.44
2018-09-19T08:43:48.839Z,24.42
2018-09-19T08:46:18.335Z,24.42
2018-09-19T08:48:47.967Z,24.59
2018-09-19T08:51:17.539Z,24.33
2018-09-19T08:53:47.131Z,24.50
2018-09-19T08:56:16.698Z,24.63
2018-09-19T08:58:46.308Z,24.68
2018-09-19T09:01:15.842Z,24.76
2018-09-19T09:03:45.558Z,24.60
2018-09-19T09:06:15.135Z,24.48
2018-09-19T09:08:44.680Z,24.74
2018-09-19T09:11:14.281Z,24.69
2018-09-19T09:13:43.797Z,24.75
2018-09-19T09:16:13.365Z,24.71
2018-09-19T09:18:42.883Z,24.72
2018-09-19T09:21:12.691Z,24.59
2018-09-19T09:23:42.238Z,24.61
2018-09-19T09:26:11.953Z,24.75
2018-09-19T09:28:41.536Z,24.82
2018-09-19T09:31:11.183Z,25.01
2018-09-19T09:33:40.684Z,24.99
2018-09-19T09:36:10.226Z,25.05
2018-09-19T09:38:39.802Z,25.10
2018-09-19T09:41:09.523Z,25.18
2018-09-19T09:43:39.127Z,25.02
2018-09-19T09:46:08.778Z,24.97
2018-09-19T09:48:38.281Z,25.07
2018-09-19T09:51:07.858Z,25.16
2018-09-19T09:53:37.426Z,25.20
2018-09-19T09:56:07.098Z,24.71
2018-09-19T09:58:36.727Z,25.35
2018-09-19T10:01:06.391Z,25.48
2018-09-19T10:03:35.887Z,25.52
2018-09-19T10:06:05.542Z,25.42
2018-09-19T10:08:35.125Z,25.27
2018-09-19T10:11:04.704Z,25.46
2018-09-19T10:13:34.269Z,25.63
2018-09-19T10:16:03.808Z,25.71
2018-09-19T10:18:33.316Z,25.80
2018-09-19T10:21:03.039Z,25.84
2018-09-19T10:23:32.649Z,25.76
2018-09-19T10:26:02.161Z,25.75
2018-09-19T10:28:31.744Z,25.70
2018-09-19T10:31:01.253Z,25.67
2018-09-19T10:33:30.864Z,25.64
2018-09-19T10:36:00.391Z,25.54
2018-09-19T10:38:29.979Z,25.57
2018-09-19T10:40:59.477Z,25.55
2018-09-19T10:43:29.024Z,25.58
2018-09-19T10:45:58.586Z,25.67
2018-09-19T10:48:28.192Z,25.65
2018-09-19T10:50:57.744Z,25.71
2018-09-19T10:53:27.372Z,25.82
2018-09-19T10:55:56.937Z,25.86
2018-09-19T10:58:26.583Z,25.75
2018-09-19T11:00:56.131Z,25.74
2018-09-19T11:03:25.752Z,25.69
2018-09-19T11:05:55.906Z,25.64
2018-09-19T11:08:25.555Z,25.54
2018-09-19T11:10:55.112Z,25.66
2018-09-19T11:13:24.704Z,25.55
2018-09-19T11:15:54.303Z,25.68
2018-09-19T11:18:24.077Z,25.61
2018-09-19T11:20:53.585Z,25.65
2018-09-19T11:23:23.236Z,25.67
2018-09-19T11:25:52.825Z,25.65
2018-09-19T11:28:22.363Z,25.60
2018-09-19T11:30:52.084Z,25.71
2018-09-19T11:33:21.687Z,25.76
2018-09-19T11:35:51.263Z,25.72
2018-09-19T11:38:20.869Z,25.66
2018-09-19T11:40:50.371Z,25.68
2018-09-19T11:43:20.124Z,25.70
2018-09-19T11:45:49.671Z,25.70
2018-09-19T11:48:19.161Z,25.70
2018-09-19T11:50:48.762Z,25.82
2018-09-19T11:53:21.150Z,25.83
2018-09-19T11:55:50.761Z,25.80
2018-09-19T11:58:20.300Z,25.67
2018-09-19T12:00:49.856Z,25.67
2018-09-19T12:03:19.471Z,25.58
2018-09-19T12:05:48.996Z,25.52
2018-09-19T12:08:19.118Z,25.58
2018-09-19T12:10:48.667Z,25.49
2018-09-19T12:13:18.157Z,25.50
2018-09-19T12:15:47.827Z,25.59
2018-09-19T12:18:17.439Z,25.65
2018-09-19T12:20:47.001Z,25.77
2018-09-19T12:23:16.507Z,25.80
2018-09-19T12:25:46.094Z,25.77
2018-09-19T12:28:15.691Z,25.69
2018-09-19T12:30:45.340Z,25.72
2018-09-19T12:33:14.887Z,25.78
2018-09-19T12:35:44.455Z,25.90
2018-09-19T12:38:14.110Z,25.96
2018-09-19T12:40:44.087Z,26.02
2018-09-19T12:43:13.722Z,26.06
2018-09-19T12:45:43.436Z,26.08
2018-09-19T12:48:13.136Z,26.07
2018-09-19T12:50:42.644Z,26.09
2018-09-19T12:53:12.352Z,26.17
2018-09-19T12:55:41.900Z,26.20
2018-09-19T12:58:11.529Z,26.28
2018-09-19T13:00:41.167Z,26.30
2018-09-19T13:03:10.715Z,26.32
2018-09-19T13:05:40.284Z,26.33
2018-09-19T13:08:10.017Z,26.35
2018-09-19T13:10:39.802Z,26.40
2018-09-19T13:13:09.428Z,26.50
2018-09-19T13:15:38.994Z,26.48
2018-09-19T13:18:08.570Z,26.52
2018-09-19T13:20:38.149Z,26.57
2018-09-19T13:23:07.838Z,26.62
2018-09-19T13:25:37.494Z,26.75
2018-09-19T13:28:07.049Z,26.81
2018-09-19T13:30:36.612Z,26.81
2018-09-19T13:33:06.251Z,26.89
2018-09-19T13:35:35.818Z,26.90
2018-09-19T13:38:05.524Z,26.90
2018-09-19T13:40:35.092Z,26.84
2018-09-19T13:43:04.758Z,26.81
2018-09-19T13:45:34.560Z,26.81
2018-09-19T13:48:04.139Z,26.83
2018-09-19T13:50:39.463Z,26.76
2018-09-19T13:53:09.551Z,26.75
2018-09-19T13:55:39.103Z,26.77
2018-09-19T13:58:08.644Z,26.27
2018-09-19T14:00:38.947Z,26.84
2018-09-19T14:03:08.530Z,26.81
2018-09-19T14:05:38.179Z,26.81
2018-09-19T14:08:08.091Z,26.85
2018-09-19T14:10:37.669Z,26.71
2018-09-19T14:13:08.543Z,26.68
2018-09-19T14:15:38.954Z,26.69
2018-09-19T14:18:08.950Z,26.73
2018-09-19T14:20:38.442Z,26.73
2018-09-19T14:23:08.020Z,26.70
2018-09-19T14:25:37.847Z,26.71
2018-09-19T14:28:09.387Z,26.71
2018-09-19T14:30:39.248Z,26.73
2018-09-19T14:33:08.890Z,26.70
2018-09-19T14:35:38.495Z,26.70
2018-09-19T14:38:08.039Z,26.69
2018-09-19T14:40:37.600Z,26.60
2018-09-19T14:43:07.242Z,26.49
2018-09-19T14:45:36.796Z,26.43
2018-09-19T14:48:06.432Z,26.43
2018-09-19T14:50:35.923Z,26.39
2018-09-19T14:53:05.479Z,26.39
2018-09-19T14:55:35.015Z,26.35
2018-09-19T14:58:04.598Z,26.30
2018-09-19T15:00:34.148Z,26.26
2018-09-19T15:03:03.660Z,26.18
2018-09-19T15:05:33.211Z,26.16
2018-09-19T15:08:03.008Z,26.09
2018-09-19T15:10:32.659Z,26.10
2018-09-19T15:13:02.266Z,26.07
2018-09-19T15:15:31.872Z,26.05
2018-09-19T15:18:01.410Z,26.07
2018-09-19T15:20:31.015Z,26.00
2018-09-19T15:23:00.892Z,25.92
2018-09-19T15:25:30.400Z,25.86
2018-09-19T15:27:59.991Z,25.87
2018-09-19T15:30:29.492Z,25.81
2018-09-19T15:32:59.158Z,25.79
2018-09-19T15:35:28.639Z,25.70
2018-09-19T15:37:58.196Z,25.67
2018-09-19T15:40:27.749Z,25.65
2018-09-19T15:42:57.270Z,25.64
2018-09-19T15:45:26.829Z,25.57
2018-09-19T15:47:56.407Z,25.48
2018-09-19T15:50:26.029Z,24.92
2018-09-19T15:52:55.555Z,25.33
2018-09-19T15:55:25.129Z,25.30
2018-09-19T15:57:54.669Z,25.18
2018-09-19T16:00:24.347Z,25.11
2018-09-19T16:02:53.875Z,25.04
2018-09-19T16:05:23.431Z,24.99
2018-09-19T16:07:52.918Z,24.90
2018-09-19T16:10:22.455Z,24.80
2018-09-19T16:12:51.950Z,24.76
2018-09-19T16:15:21.549Z,24.67
2018-09-19T16:17:51.018Z,24.57
2018-09-19T16:20:20.550Z,24.49
2018-09-19T16:22:50.114Z,24.40
2018-09-19T16:25:19.672Z,24.31
2018-09-19T16:27:49.215Z,24.22
2018-09-19T16:30:18.777Z,24.13
2018-09-19T16:32:48.307Z,23.99
2018-09-19T16:35:17.843Z,23.88
2018-09-19T16:37:47.350Z,23.78
2018-09-19T16:40:16.979Z,23.64
2018-09-19T16:42:46.501Z,23.53
2018-09-19T16:45:16.059Z,23.43
2018-09-19T16:47:45.556Z,23.35
2018-09-19T16:50:15.256Z,23.29
2018-09-19T16:52:44.756Z,23.20
2018-09-19T16:55:14.298Z,23.13
2018-09-19T16:57:43.836Z,23.06
2018-09-19T17:00:14.671Z,22.98
2018-09-19T17:02:44.392Z,22.89
2018-09-19T17:05:14.083Z,22.83
2018-09-19T17:07:43.995Z,22.74
2018-09-19T17:10:13.514Z,22.64
2018-09-19T17:12:43.036Z,22.58
2018-09-19T17:15:12.641Z,22.50
2018-09-19T17:17:42.159Z,22.40
2018-09-19T17:20:11.888Z,22.33
2018-09-19T17:22:41.443Z,22.26
2018-09-19T17:25:10.992Z,22.19
2018-09-19T17:27:40.572Z,22.13
2018-09-19T17:30:10.168Z,22.09
2018-09-19T17:32:39.672Z,22.07
2018-09-19T17:35:09.263Z,22.03
2018-09-19T17:37:38.755Z,22.01
2018-09-19T17:40:08.400Z,21.95
2018-09-19T17:42:37.915Z,21.88
2018-09-19T17:45:08.068Z,21.82
2018-09-19T17:47:37.600Z,21.77
2018-09-19T17:50:07.980Z,21.71
2018-09-19T17:52:37.531Z,21.64
2018-09-19T17:55:07.102Z,21.47
2018-09-19T17:57:36.663Z,21.46
2018-09-19T18:00:07.820Z,21.40
2018-09-19T18:02:37.358Z,21.38
2018-09-19T18:05:06.983Z,21.30
2018-09-19T18:07:36.493Z,21.20
2018-09-19T18:10:06.158Z,21.17
2018-09-19T18:12:35.667Z,21.19
2018-09-19T18:15:05.380Z,21.17
2018-09-19T18:17:34.931Z,21.13
2018-09-19T18:20:04.498Z,21.06
2018-09-19T18:22:34.085Z,21.06
2018-09-19T18:25:03.633Z,21.03
2018-09-19T18:27:33.194Z,21.02
2018-09-19T18:30:02.727Z,20.98
2018-09-19T18:32:32.308Z,20.97
2018-09-19T18:35:01.863Z,20.97
2018-09-19T18:37:31.460Z,20.95
2018-09-19T18:40:00.985Z,20.94
2018-09-19T18:42:30.527Z,20.91
2018-09-19T18:45:00.045Z,20.86
2018-09-19T18:47:29.589Z,20.82
2018-09-19T18:49:59.193Z,20.80
2018-09-19T18:52:28.694Z,20.72
2018-09-19T18:54:58.190Z,20.66
2018-09-19T18:57:27.743Z,20.62
2018-09-19T18:59:57.230Z,20.60
2018-09-19T19:02:26.802Z,20.56
2018-09-19T19:04:56.444Z,20.55
2018-09-19T19:07:25.996Z,20.53
2018-09-19T19:09:55.467Z,20.50
2018-09-19T19:12:25.002Z,20.51
2018-09-19T19:14:54.569Z,20.48
2018-09-19T19:17:24.079Z,20.41
2018-09-19T19:19:53.627Z,20.36
2018-09-19T19:22:23.184Z,20.21
2018-09-19T19:24:52.691Z,20.25
2018-09-19T19:27:22.267Z,20.21
2018-09-19T19:29:51.874Z,20.24
2018-09-19T19:32:21.490Z,20.21
2018-09-19T19:34:51.019Z,20.20
2018-09-19T19:37:20.550Z,20.15
2018-09-19T19:39:50.084Z,20.05
2018-09-19T19:42:19.596Z,20.07
2018-09-19T19:44:49.201Z,20.05
2018-09-19T19:47:18.811Z,20.07
2018-09-19T19:49:48.376Z,20.04
2018-09-19T19:52:17.940Z,20.02
2018-09-19T19:54:47.551Z,20.04
2018-09-19T19:57:17.107Z,19.97
2018-09-19T19:59:46.616Z,19.92
2018-09-19T20:02:16.199Z,19.91
2018-09-19T20:04:45.778Z,19.87
2018-09-19T20:07:15.321Z,19.89
2018-09-19T20:09:44.863Z,19.91
2018-09-19T20:12:14.544Z,19.92
2018-09-19T20:14:44.053Z,19.36
2018-09-19T20:17:13.602Z,19.83
2018-09-19T20:19:43.106Z,19.85
2018-09-19T20:22:12.700Z,19.85
2018-09-19T20:24:42.203Z,19.84
2018-09-19T20:27:11.763Z,19.66
2018-09-19T20:29:41.364Z,19.54
2018-09-19T20:32:10.856Z,19.60
2018-09-19T20:34:40.395Z,19.60
2018-09-19T20:37:09.943Z,19.54
2018-09-19T20:39:39.443Z,19.40
2018-09-19T20:42:09.018Z,19.41
2018-09-19T20:44:38.515Z,19.37
2018-09-19T20:47:08.060Z,19.22
2018-09-19T20:49:37.693Z,19.24
2018-09-19T20:52:07.264Z,19.24
2018-09-19T20:54:37.455Z,19.26
2018-09-19T20:57:07.132Z,19.30
2018-09-19T20:59:36.691Z,19.28
2018-09-19T21:02:07.203Z,19.13
2018-09-19T21:04:36.889Z,19.17
2018-09-19T21:07:06.347Z,19.21
2018-09-19T21:09:35.888Z,19.20
2018-09-19T21:12:05.440Z,19.20
2018-09-19T21:14:35.062Z,18.50
2018-09-19T21:17:04.604Z,19.20
2018-09-19T21:19:34.133Z,19.13
2018-09-19T21:22:03.798Z,19.11
2018-09-19T21:24:33.258Z,19.07
2018-09-19T21:27:02.786Z,19.04
2018-09-19T21:29:32.344Z,19.01
2018-09-19T21:32:02.017Z,19.00
2018-09-19T21:34:31.630Z,18.94
2018-09-19T21:37:01.252Z,18.91
2018-09-19T21:39:30.829Z,18.90
2018-09-19T21:42:00.384Z,18.87
2018-09-19T21:44:29.889Z,18.83
2018-09-19T21:46:59.438Z,18.80
2018-09-19T21:49:28.953Z,18.78
2018-09-19T21:51:58.596Z,18.78
2018-09-19T21:54:28.087Z,18.74
2018-09-19T21:56:57.627Z,18.71
2018-09-19T21:59:27.139Z,18.65
2018-09-19T22:01:59.092Z,18.57
2018-09-19T22:04:28.765Z,18.53
2018-09-19T22:06:58.322Z,18.51
2018-09-19T22:09:27.917Z,18.46
2018-09-19T22:11:57.518Z,18.43
2018-09-19T22:14:28.042Z,18.37
2018-09-19T22:16:57.586Z,18.32
2018-09-19T22:19:27.103Z,18.29
2018-09-19T22:21:56.673Z,18.23
2018-09-19T22:24:26.253Z,18.21
2018-09-19T22:26:55.799Z,17.62
2018-09-19T22:29:25.339Z,18.11
2018-09-19T22:31:54.918Z,18.02
2018-09-19T22:34:24.639Z,17.98
2018-09-19T22:36:54.122Z,17.93
2018-09-19T22:39:23.707Z,17.85
2018-09-19T22:41:53.297Z,17.78
2018-09-19T22:44:22.849Z,17.77
2018-09-19T22:46:52.383Z,17.67
2018-09-19T22:49:21.928Z,17.60
2018-09-19T22:51:51.453Z,17.54
2018-09-19T22:54:20.962Z,17.49
2018-09-19T22:56:50.515Z,17.45
2018-09-19T22:59:20.036Z,17.41
2018-09-19T23:01:49.628Z,17.40
2018-09-19T23:04:19.143Z,17.36
2018-09-19T23:06:48.752Z,17.33
2018-09-19T23:09:18.235Z,17.29
2018-09-19T23:11:47.759Z,17.29
2018-09-19T23:14:17.224Z,17.23
2018-09-19T23:16:46.764Z,17.20
2018-09-19T23:19:16.337Z,17.13
2018-09-19T23:21:45.980Z,17.13
2018-09-19T23:24:15.515Z,17.08
2018-09-19T23:26:45.037Z,17.02
2018-09-19T23:29:14.618Z,16.96
2018-09-19T23:31:44.103Z,16.94
2018-09-19T23:34:13.736Z,16.80
2018-09-19T23:36:43.260Z,16.62
2018-09-19T23:39:12.899Z,16.56
2018-09-19T23:41:42.383Z,16.59
2018-09-19T23:44:11.910Z,16.62
2018-09-19T23:46:41.472Z,16.68
2018-09-19T23:49:10.954Z,16.59
2018-09-19T23:51:40.516Z,16.60
2018-09-19T23:54:10.018Z,16.73
2018-09-19T23:56:39.642Z,16.79
2018-09-19T23:59:09.192Z,16.86
